sensor_id;sensor_type;location;lat;lon;timestamp;pressure;altitude;pressure_sealevel;temperature;humidity
50302;BME280;36550;50.472;19.744;2024-01-27T00:01:37;98241.58;;;3.70;96.76
50302;BME280;36550;50.472;19.744;2024-01-27T00:04:21;98246.52;;;3.65;96.61
50302;BME280;36550;50.472;19.744;2024-01-27T00:07:05;98257.50;;;3.61;96.51
50302;BME280;36550;50.472;19.744;2024-01-27T00:09:50;98260.64;;;3.57;96.25
50302;BME280;36550;50.472;19.744;2024-01-27T00:12:34;98267.48;;;3.54;95.80
50302;BME280;36550;50.472;19.744;2024-01-27T00:15:18;98282.63;;;3.49;95.67
50302;BME280;36550;50.472;19.744;2024-01-27T00:18:03;98292.98;;;3.46;95.89
50302;BME280;36550;50.472;19.744;2024-01-27T00:20:47;98301.37;;;3.44;95.29
50302;BME280;36550;50.472;19.744;2024-01-27T00:23:31;98310.30;;;3.43;94.33
50302;BME280;36550;50.472;19.744;2024-01-27T00:26:16;98314.48;;;3.41;91.61
50302;BME280;36550;50.472;19.744;2024-01-27T00:29:00;98316.51;;;3.45;91.85
50302;BME280;36550;50.472;19.744;2024-01-27T00:31:44;98321.66;;;3.45;91.96
50302;BME280;36550;50.472;19.744;2024-01-27T00:34:29;98324.53;;;3.44;89.29
50302;BME280;36550;50.472;19.744;2024-01-27T00:37:13;98334.73;;;3.43;88.09
50302;BME280;36550;50.472;19.744;2024-01-27T00:39:57;98332.65;;;3.40;87.03
50302;BME280;36550;50.472;19.744;2024-01-27T00:42:41;98345.59;;;3.34;85.39
50302;BME280;36550;50.472;19.744;2024-01-27T00:45:26;98342.09;;;3.30;86.45
50302;BME280;36550;50.472;19.744;2024-01-27T00:48:12;98348.80;;;3.23;86.56
50302;BME280;36550;50.472;19.744;2024-01-27T00:50:56;98348.80;;;3.20;87.31
50302;BME280;36550;50.472;19.744;2024-01-27T00:53:40;98360.19;;;3.19;87.63
50302;BME280;36550;50.472;19.744;2024-01-27T00:56:25;98361.38;;;3.19;87.86
50302;BME280;36550;50.472;19.744;2024-01-27T00:59:09;98367.42;;;3.20;88.23
50302;BME280;36550;50.472;19.744;2024-01-27T01:01:53;98373.26;;;3.21;88.60
50302;BME280;36550;50.472;19.744;2024-01-27T01:04:37;98376.80;;;3.21;88.76
50302;BME280;36550;50.472;19.744;2024-01-27T01:07:21;98378.77;;;3.23;88.51
50302;BME280;36550;50.472;19.744;2024-01-27T01:10:06;98379.11;;;3.24;87.85
50302;BME280;36550;50.472;19.744;2024-01-27T01:12:51;98379.75;;;3.26;88.08
50302;BME280;36550;50.472;19.744;2024-01-27T01:15:35;98382.05;;;3.27;87.60
50302;BME280;36550;50.472;19.744;2024-01-27T01:18:19;98383.53;;;3.27;86.57
50302;BME280;36550;50.472;19.744;2024-01-27T01:21:03;98393.72;;;3.29;86.47
50302;BME280;36550;50.472;19.744;2024-01-27T01:23:47;98391.87;;;3.31;85.71
50302;BME280;36550;50.472;19.744;2024-01-27T01:26:31;98398.67;;;3.32;85.01
50302;BME280;36550;50.472;19.744;2024-01-27T01:29:16;98396.85;;;3.34;84.27
50302;BME280;36550;50.472;19.744;2024-01-27T01:32:00;98395.73;;;3.36;84.13
50302;BME280;36550;50.472;19.744;2024-01-27T01:34:47;98401.23;;;3.36;83.01
50302;BME280;36550;50.472;19.744;2024-01-27T01:37:31;98403.03;;;3.35;82.90
50302;BME280;36550;50.472;19.744;2024-01-27T01:40:16;98404.75;;;3.36;83.07
50302;BME280;36550;50.472;19.744;2024-01-27T01:43:00;98412.78;;;3.37;83.35
50302;BME280;36550;50.472;19.744;2024-01-27T01:45:44;98419.04;;;3.38;84.19
50302;BME280;36550;50.472;19.744;2024-01-27T02:00:21;98416.32;;;3.67;78.19
50302;BME280;36550;50.472;19.744;2024-01-27T02:03:05;98418.50;;;3.69;76.32
50302;BME280;36550;50.472;19.744;2024-01-27T02:05:55;98425.95;;;3.64;76.45
50302;BME280;36550;50.472;19.744;2024-01-27T02:08:39;98421.94;;;3.57;76.71
50302;BME280;36550;50.472;19.744;2024-01-27T02:11:23;98425.23;;;3.55;78.27
50302;BME280;36550;50.472;19.744;2024-01-27T02:14:08;98426.60;;;3.48;79.25
50302;BME280;36550;50.472;19.744;2024-01-27T02:16:53;98434.39;;;3.45;79.36
50302;BME280;36550;50.472;19.744;2024-01-27T02:19:38;98438.17;;;3.44;78.36
50302;BME280;36550;50.472;19.744;2024-01-27T02:22:22;98435.68;;;3.43;77.05
50302;BME280;36550;50.472;19.744;2024-01-27T02:25:06;98443.64;;;3.39;74.65
50302;BME280;36550;50.472;19.744;2024-01-27T02:27:51;98446.04;;;3.36;74.57
50302;BME280;36550;50.472;19.744;2024-01-27T02:30:35;98447.08;;;3.35;75.22
50302;BME280;36550;50.472;19.744;2024-01-27T02:33:19;98452.63;;;3.32;75.62
50302;BME280;36550;50.472;19.744;2024-01-27T02:36:04;98451.73;;;3.33;76.77
50302;BME280;36550;50.472;19.744;2024-01-27T02:38:48;98451.95;;;3.34;77.02
50302;BME280;36550;50.472;19.744;2024-01-27T02:41:33;98453.33;;;3.33;77.43
50302;BME280;36550;50.472;19.744;2024-01-27T02:44:22;98450.60;;;3.29;77.60
50302;BME280;36550;50.472;19.744;2024-01-27T02:47:07;98449.73;;;3.30;78.48
50302;BME280;36550;50.472;19.744;2024-01-27T02:49:51;98446.25;;;3.30;78.56
50302;BME280;36550;50.472;19.744;2024-01-27T02:52:35;98452.86;;;3.29;78.66
50302;BME280;36550;50.472;19.744;2024-01-27T02:55:19;98458.76;;;3.27;78.72
50302;BME280;36550;50.472;19.744;2024-01-27T02:58:04;98460.11;;;3.25;78.50
50302;BME280;36550;50.472;19.744;2024-01-27T03:00:49;98459.24;;;3.23;78.39
50302;BME280;36550;50.472;19.744;2024-01-27T03:03:33;98460.97;;;3.23;78.56
50302;BME280;36550;50.472;19.744;2024-01-27T03:06:17;98467.87;;;3.22;78.81
50302;BME280;36550;50.472;19.744;2024-01-27T03:09:02;98480.46;;;3.21;78.57
50302;BME280;36550;50.472;19.744;2024-01-27T03:11:47;98486.73;;;3.20;78.89
50302;BME280;36550;50.472;19.744;2024-01-27T03:14:31;98493.11;;;3.20;79.11
50302;BME280;36550;50.472;19.744;2024-01-27T03:17:15;98499.15;;;3.19;79.52
50302;BME280;36550;50.472;19.744;2024-01-27T03:19:59;98496.05;;;3.17;79.30
50302;BME280;36550;50.472;19.744;2024-01-27T03:22:43;98498.89;;;3.15;79.15
50302;BME280;36550;50.472;19.744;2024-01-27T03:25:28;98498.87;;;3.14;79.37
50302;BME280;36550;50.472;19.744;2024-01-27T03:28:12;98495.32;;;3.13;79.68
50302;BME280;36550;50.472;19.744;2024-01-27T03:30:56;98491.77;;;3.11;79.37
50302;BME280;36550;50.472;19.744;2024-01-27T03:33:40;98494.84;;;3.12;79.48
50302;BME280;36550;50.472;19.744;2024-01-27T03:36:24;98487.38;;;3.12;80.01
50302;BME280;36550;50.472;19.744;2024-01-27T03:39:08;98494.16;;;3.12;79.74
50302;BME280;36550;50.472;19.744;2024-01-27T03:41:53;98491.33;;;3.14;79.50
50302;BME280;36550;50.472;19.744;2024-01-27T03:44:36;98499.29;;;3.15;79.79
50302;BME280;36550;50.472;19.744;2024-01-27T03:47:20;98501.36;;;3.12;79.64
50302;BME280;36550;50.472;19.744;2024-01-27T03:50:04;98506.61;;;3.08;79.62
50302;BME280;36550;50.472;19.744;2024-01-27T03:52:49;98510.61;;;3.05;79.31
50302;BME280;36550;50.472;19.744;2024-01-27T03:55:33;98508.29;;;3.04;79.50
50302;BME280;36550;50.472;19.744;2024-01-27T03:58:19;98519.31;;;3.04;78.87
50302;BME280;36550;50.472;19.744;2024-01-27T04:01:03;98509.33;;;3.05;78.79
50302;BME280;36550;50.472;19.744;2024-01-27T04:03:47;98508.86;;;3.05;78.59
50302;BME280;36550;50.472;19.744;2024-01-27T04:06:39;98511.35;;;3.04;78.04
50302;BME280;36550;50.472;19.744;2024-01-27T04:09:24;98507.63;;;3.04;77.54
50302;BME280;36550;50.472;19.744;2024-01-27T04:12:08;98520.95;;;3.04;77.25
50302;BME280;36550;50.472;19.744;2024-01-27T04:14:52;98514.35;;;3.02;77.23
50302;BME280;36550;50.472;19.744;2024-01-27T04:17:37;98520.86;;;3.03;77.65
50302;BME280;36550;50.472;19.744;2024-01-27T04:20:22;98518.98;;;3.04;77.69
50302;BME280;36550;50.472;19.744;2024-01-27T04:23:06;98526.16;;;3.06;77.77
50302;BME280;36550;50.472;19.744;2024-01-27T04:25:50;98529.23;;;3.07;78.03
50302;BME280;36550;50.472;19.744;2024-01-27T04:28:34;98534.46;;;3.05;78.49
50302;BME280;36550;50.472;19.744;2024-01-27T04:31:18;98544.42;;;2.99;79.54
50302;BME280;36550;50.472;19.744;2024-01-27T04:34:02;98546.85;;;2.90;81.14
50302;BME280;36550;50.472;19.744;2024-01-27T04:36:47;98549.48;;;2.83;81.34
50302;BME280;36550;50.472;19.744;2024-01-27T04:39:30;98551.00;;;2.79;81.64
50302;BME280;36550;50.472;19.744;2024-01-27T04:42:14;98557.66;;;2.67;83.75
50302;BME280;36550;50.472;19.744;2024-01-27T04:45:01;98566.34;;;2.62;84.66
50302;BME280;36550;50.472;19.744;2024-01-27T04:47:46;98567.27;;;2.57;85.39
50302;BME280;36550;50.472;19.744;2024-01-27T04:50:30;98562.84;;;2.55;85.55
50302;BME280;36550;50.472;19.744;2024-01-27T04:53:14;98559.96;;;2.54;85.27
50302;BME280;36550;50.472;19.744;2024-01-27T04:55:58;98558.77;;;2.49;86.14
50302;BME280;36550;50.472;19.744;2024-01-27T04:58:43;98559.40;;;2.49;85.50
50302;BME280;36550;50.472;19.744;2024-01-27T05:01:27;98554.60;;;2.48;85.51
50302;BME280;36550;50.472;19.744;2024-01-27T05:04:12;98557.27;;;2.46;85.62
50302;BME280;36550;50.472;19.744;2024-01-27T05:06:56;98556.52;;;2.46;85.95
50302;BME280;36550;50.472;19.744;2024-01-27T05:09:40;98558.52;;;2.48;85.84
50302;BME280;36550;50.472;19.744;2024-01-27T05:12:25;98567.94;;;2.50;85.75
50302;BME280;36550;50.472;19.744;2024-01-27T05:15:10;98565.73;;;2.52;85.87
50302;BME280;36550;50.472;19.744;2024-01-27T05:17:55;98563.98;;;2.54;85.80
50302;BME280;36550;50.472;19.744;2024-01-27T05:20:40;98563.77;;;2.54;85.65
50302;BME280;36550;50.472;19.744;2024-01-27T05:23:24;98561.52;;;2.54;85.53
50302;BME280;36550;50.472;19.744;2024-01-27T05:26:10;98564.62;;;2.53;85.30
50302;BME280;36550;50.472;19.744;2024-01-27T05:28:55;98567.83;;;2.52;84.96
50302;BME280;36550;50.472;19.744;2024-01-27T05:31:39;98569.85;;;2.50;84.69
50302;BME280;36550;50.472;19.744;2024-01-27T05:34:27;98571.23;;;2.50;84.56
50302;BME280;36550;50.472;19.744;2024-01-27T05:37:11;98571.47;;;2.48;84.18
50302;BME280;36550;50.472;19.744;2024-01-27T05:39:57;98574.33;;;2.49;84.37
50302;BME280;36550;50.472;19.744;2024-01-27T05:42:42;98573.86;;;2.50;84.28
50302;BME280;36550;50.472;19.744;2024-01-27T05:45:27;98572.96;;;2.50;84.31
50302;BME280;36550;50.472;19.744;2024-01-27T05:48:12;98578.39;;;2.51;84.25
50302;BME280;36550;50.472;19.744;2024-01-27T05:50:59;98586.76;;;2.51;84.25
50302;BME280;36550;50.472;19.744;2024-01-27T05:53:44;98590.48;;;2.52;84.29
50302;BME280;36550;50.472;19.744;2024-01-27T05:56:28;98588.17;;;2.50;84.40
50302;BME280;36550;50.472;19.744;2024-01-27T05:59:13;98594.73;;;2.52;84.45
50302;BME280;36550;50.472;19.744;2024-01-27T06:01:58;98596.20;;;2.51;84.40
50302;BME280;36550;50.472;19.744;2024-01-27T06:04:43;98598.56;;;2.52;84.43
50302;BME280;36550;50.472;19.744;2024-01-27T06:07:27;98594.79;;;2.52;84.38
50302;BME280;36550;50.472;19.744;2024-01-27T06:10:11;98596.56;;;2.53;84.14
50302;BME280;36550;50.472;19.744;2024-01-27T06:12:57;98599.80;;;2.52;83.76
50302;BME280;36550;50.472;19.744;2024-01-27T06:15:42;98592.52;;;2.52;83.21
50302;BME280;36550;50.472;19.744;2024-01-27T06:18:27;98595.67;;;2.55;83.07
50302;BME280;36550;50.472;19.744;2024-01-27T06:21:11;98597.99;;;2.57;82.90
50302;BME280;36550;50.472;19.744;2024-01-27T06:23:55;98596.15;;;2.58;83.04
50302;BME280;36550;50.472;19.744;2024-01-27T06:26:39;98594.28;;;2.61;82.91
50302;BME280;36550;50.472;19.744;2024-01-27T06:29:23;98592.11;;;2.60;82.19
50302;BME280;36550;50.472;19.744;2024-01-27T06:32:08;98597.33;;;2.62;81.56
50302;BME280;36550;50.472;19.744;2024-01-27T06:34:52;98599.79;;;2.63;81.59
50302;BME280;36550;50.472;19.744;2024-01-27T06:37:37;98598.97;;;2.64;81.67
50302;BME280;36550;50.472;19.744;2024-01-27T06:40:21;98603.08;;;2.66;81.81
50302;BME280;36550;50.472;19.744;2024-01-27T06:43:05;98603.61;;;2.64;81.17
50302;BME280;36550;50.472;19.744;2024-01-27T06:45:49;98605.05;;;2.65;80.90
50302;BME280;36550;50.472;19.744;2024-01-27T06:48:34;98600.33;;;2.66;80.56
50302;BME280;36550;50.472;19.744;2024-01-27T06:51:26;98594.29;;;2.69;80.25
50302;BME280;36550;50.472;19.744;2024-01-27T06:54:10;98593.66;;;2.73;80.78
50302;BME280;36550;50.472;19.744;2024-01-27T06:56:54;98599.52;;;2.73;79.94
50302;BME280;36550;50.472;19.744;2024-01-27T06:59:39;98602.13;;;2.76;79.75
50302;BME280;36550;50.472;19.744;2024-01-27T07:02:25;98603.41;;;2.80;79.73
50302;BME280;36550;50.472;19.744;2024-01-27T07:05:12;98603.92;;;2.84;78.95
50302;BME280;36550;50.472;19.744;2024-01-27T07:07:59;98609.16;;;2.89;78.93
50302;BME280;36550;50.472;19.744;2024-01-27T07:10:47;98607.98;;;2.92;79.38
50302;BME280;36550;50.472;19.744;2024-01-27T07:13:32;98611.90;;;2.93;78.91
50302;BME280;36550;50.472;19.744;2024-01-27T07:16:24;98607.58;;;2.89;77.92
50302;BME280;36550;50.472;19.744;2024-01-27T07:19:08;98601.50;;;2.95;78.42
50302;BME280;36550;50.472;19.744;2024-01-27T07:21:53;98604.52;;;2.94;77.56
50302;BME280;36550;50.472;19.744;2024-01-27T07:24:37;98605.17;;;2.93;77.56
50302;BME280;36550;50.472;19.744;2024-01-27T07:27:21;98606.05;;;2.94;77.40
50302;BME280;36550;50.472;19.744;2024-01-27T07:30:08;98610.24;;;2.95;77.34
50302;BME280;36550;50.472;19.744;2024-01-27T07:32:53;98619.35;;;2.94;77.77
50302;BME280;36550;50.472;19.744;2024-01-27T07:35:38;98617.71;;;2.95;77.50
50302;BME280;36550;50.472;19.744;2024-01-27T07:38:22;98618.77;;;2.98;77.94
50302;BME280;36550;50.472;19.744;2024-01-27T07:41:06;98616.63;;;2.98;77.13
50302;BME280;36550;50.472;19.744;2024-01-27T07:43:50;98621.92;;;2.97;76.43
50302;BME280;36550;50.472;19.744;2024-01-27T07:46:35;98622.38;;;2.98;75.99
50302;BME280;36550;50.472;19.744;2024-01-27T07:49:19;98625.95;;;3.02;76.08
50302;BME280;36550;50.472;19.744;2024-01-27T07:52:04;98627.46;;;3.03;75.45
50302;BME280;36550;50.472;19.744;2024-01-27T07:54:48;98627.45;;;3.07;75.57
50302;BME280;36550;50.472;19.744;2024-01-27T07:57:33;98619.97;;;3.10;75.52
50302;BME280;36550;50.472;19.744;2024-01-27T08:00:17;98620.56;;;3.14;75.72
50302;BME280;36550;50.472;19.744;2024-01-27T08:03:01;98617.68;;;3.20;76.13
50302;BME280;36550;50.472;19.744;2024-01-27T08:05:45;98620.48;;;3.26;76.46
50302;BME280;36550;50.472;19.744;2024-01-27T08:08:29;98620.11;;;3.31;76.07
50302;BME280;36550;50.472;19.744;2024-01-27T08:11:15;98618.39;;;3.35;75.26
50302;BME280;36550;50.472;19.744;2024-01-27T08:13:59;98626.45;;;3.40;75.40
50302;BME280;36550;50.472;19.744;2024-01-27T08:16:44;98631.05;;;3.43;75.27
50302;BME280;36550;50.472;19.744;2024-01-27T08:19:28;98634.14;;;3.43;75.72
50302;BME280;36550;50.472;19.744;2024-01-27T08:22:13;98636.67;;;3.36;75.89
50302;BME280;36550;50.472;19.744;2024-01-27T08:24:57;98642.13;;;3.24;76.85
50302;BME280;36550;50.472;19.744;2024-01-27T08:27:44;98638.59;;;3.14;78.30
50302;BME280;36550;50.472;19.744;2024-01-27T08:30:49;98639.02;;;2.93;80.16
50302;BME280;36550;50.472;19.744;2024-01-27T08:34:13;98635.85;;;2.85;81.57
50302;BME280;36550;50.472;19.744;2024-01-27T08:37:20;98636.34;;;2.76;82.88
50302;BME280;36550;50.472;19.744;2024-01-27T08:40:24;98636.65;;;2.72;83.63
50302;BME280;36550;50.472;19.744;2024-01-27T08:43:36;98638.78;;;2.66;83.88
50302;BME280;36550;50.472;19.744;2024-01-27T08:47:19;98645.07;;;2.61;85.19
50302;BME280;36550;50.472;19.744;2024-01-27T08:51:03;98643.26;;;2.65;85.57
50302;BME280;36550;50.472;19.744;2024-01-27T08:54:08;98649.58;;;2.72;86.35
50302;BME280;36550;50.472;19.744;2024-01-27T08:57:53;98649.35;;;2.79;86.28
50302;BME280;36550;50.472;19.744;2024-01-27T09:01:00;98649.73;;;2.70;87.11
50302;BME280;36550;50.472;19.744;2024-01-27T09:04:44;98655.52;;;2.60;87.28
50302;BME280;36550;50.472;19.744;2024-01-27T09:07:49;98652.97;;;2.57;87.19
50302;BME280;36550;50.472;19.744;2024-01-27T09:10:59;98649.91;;;2.50;88.09
50302;BME280;36550;50.472;19.744;2024-01-27T09:14:28;98652.14;;;2.48;87.78
50302;BME280;36550;50.472;19.744;2024-01-27T09:17:54;98650.69;;;2.52;87.89
50302;BME280;36550;50.472;19.744;2024-01-27T09:21:38;98652.34;;;2.56;88.17
50302;BME280;36550;50.472;19.744;2024-01-27T09:25:22;98650.85;;;2.60;88.55
50302;BME280;36550;50.472;19.744;2024-01-27T09:28:47;98657.98;;;2.61;88.55
50302;BME280;36550;50.472;19.744;2024-01-27T09:32:31;98653.30;;;2.65;88.47
50302;BME280;36550;50.472;19.744;2024-01-27T09:36:11;98647.02;;;2.70;88.78
50302;BME280;36550;50.472;19.744;2024-01-27T09:39:35;98644.94;;;2.73;88.95
50302;BME280;36550;50.472;19.744;2024-01-27T09:43:07;98653.05;;;2.78;88.81
50302;BME280;36550;50.472;19.744;2024-01-27T09:46:17;98653.17;;;2.74;88.83
50302;BME280;36550;50.472;19.744;2024-01-27T09:50:01;98654.69;;;2.73;88.95
50302;BME280;36550;50.472;19.744;2024-01-27T09:53:40;98652.61;;;2.71;89.13
50302;BME280;36550;50.472;19.744;2024-01-27T09:57:24;98655.54;;;2.70;89.16
50302;BME280;36550;50.472;19.744;2024-01-27T10:01:08;98654.02;;;2.72;88.96
50302;BME280;36550;50.472;19.744;2024-01-27T10:04:53;98661.23;;;2.71;88.92
50302;BME280;36550;50.472;19.744;2024-01-27T10:08:20;98654.75;;;2.64;89.11
50302;BME280;36550;50.472;19.744;2024-01-27T10:12:06;98657.74;;;2.70;89.61
50302;BME280;36550;50.472;19.744;2024-01-27T10:15:58;98657.77;;;2.73;89.63
50302;BME280;36550;50.472;19.744;2024-01-27T10:19:34;98653.52;;;2.80;89.31
50302;BME280;36550;50.472;19.744;2024-01-27T10:23:14;98663.34;;;2.88;89.01
50302;BME280;36550;50.472;19.744;2024-01-27T10:25:59;98661.98;;;2.90;88.63
50302;BME280;36550;50.472;19.744;2024-01-27T10:29:08;98661.86;;;2.87;88.65
50302;BME280;36550;50.472;19.744;2024-01-27T10:32:55;98664.70;;;2.82;88.74
50302;BME280;36550;50.472;19.744;2024-01-27T10:35:57;98663.61;;;2.78;88.97
50302;BME280;36550;50.472;19.744;2024-01-27T10:39:02;98672.41;;;2.72;89.13
50302;BME280;36550;50.472;19.744;2024-01-27T10:42:46;98679.05;;;2.73;89.41
50302;BME280;36550;50.472;19.744;2024-01-27T10:46:10;98686.16;;;2.76;89.48
50302;BME280;36550;50.472;19.744;2024-01-27T10:49:42;98686.11;;;2.74;89.46
50302;BME280;36550;50.472;19.744;2024-01-27T10:53:24;98684.73;;;2.73;89.51
50302;BME280;36550;50.472;19.744;2024-01-27T10:57:07;98688.91;;;2.79;89.69
50302;BME280;36550;50.472;19.744;2024-01-27T11:00:35;98689.84;;;2.80;89.91
50302;BME280;36550;50.472;19.744;2024-01-27T11:04:20;98693.70;;;2.79;90.06
50302;BME280;36550;50.472;19.744;2024-01-27T11:07:39;98698.60;;;2.79;90.13
50302;BME280;36550;50.472;19.744;2024-01-27T11:10:46;98702.90;;;2.80;90.42
50302;BME280;36550;50.472;19.744;2024-01-27T11:14:11;98701.96;;;2.83;90.39
50302;BME280;36550;50.472;19.744;2024-01-27T11:17:42;98705.40;;;2.81;90.34
50302;BME280;36550;50.472;19.744;2024-01-27T11:21:12;98710.16;;;2.82;90.33
50302;BME280;36550;50.472;19.744;2024-01-27T11:24:53;98709.41;;;2.81;89.98
50302;BME280;36550;50.472;19.744;2024-01-27T11:28:36;98706.30;;;2.73;90.24
50302;BME280;36550;50.472;19.744;2024-01-27T11:32:04;98710.91;;;2.64;90.53
50302;BME280;36550;50.472;19.744;2024-01-27T11:35:28;98717.09;;;2.61;90.88
50302;BME280;36550;50.472;19.744;2024-01-27T11:38:26;98725.23;;;2.64;91.08
50302;BME280;36550;50.472;19.744;2024-01-27T11:41:11;98725.91;;;2.72;91.16
50302;BME280;36550;50.472;19.744;2024-01-27T11:43:57;98724.33;;;2.80;91.28
50302;BME280;36550;50.472;19.744;2024-01-27T11:46:44;98731.64;;;2.81;91.29
50302;BME280;36550;50.472;19.744;2024-01-27T11:49:52;98731.09;;;2.80;91.25
50302;BME280;36550;50.472;19.744;2024-01-27T11:52:38;98735.55;;;2.74;91.55
50302;BME280;36550;50.472;19.744;2024-01-27T11:55:23;98732.40;;;2.76;91.45
50302;BME280;36550;50.472;19.744;2024-01-27T11:58:08;98739.85;;;2.79;91.28
50302;BME280;36550;50.472;19.744;2024-01-27T12:00:52;98736.99;;;2.78;91.11
50302;BME280;36550;50.472;19.744;2024-01-27T12:03:36;98737.23;;;2.76;91.11
50302;BME280;36550;50.472;19.744;2024-01-27T12:06:21;98738.14;;;2.76;91.12
50302;BME280;36550;50.472;19.744;2024-01-27T12:09:06;98742.38;;;2.75;91.10
50302;BME280;36550;50.472;19.744;2024-01-27T12:11:55;98750.39;;;2.73;91.10
50302;BME280;36550;50.472;19.744;2024-01-27T12:14:40;98746.68;;;2.65;90.96
50302;BME280;36550;50.472;19.744;2024-01-27T12:17:25;98749.35;;;2.60;90.78
50302;BME280;36550;50.472;19.744;2024-01-27T12:20:14;98750.52;;;2.49;91.11
50302;BME280;36550;50.472;19.744;2024-01-27T12:23:06;98755.72;;;2.44;91.70
50302;BME280;36550;50.472;19.744;2024-01-27T12:25:54;98762.09;;;2.44;92.11
50302;BME280;36550;50.472;19.744;2024-01-27T12:28:40;98772.71;;;2.45;92.40
50302;BME280;36550;50.472;19.744;2024-01-27T12:31:24;98782.65;;;2.40;92.29
50302;BME280;36550;50.472;19.744;2024-01-27T12:34:09;98789.65;;;2.38;92.50
50302;BME280;36550;50.472;19.744;2024-01-27T12:36:53;98787.70;;;2.35;92.65
50302;BME280;36550;50.472;19.744;2024-01-27T12:39:41;98792.20;;;2.34;92.74
50302;BME280;36550;50.472;19.744;2024-01-27T12:42:25;98794.17;;;2.29;92.71
50302;BME280;36550;50.472;19.744;2024-01-27T12:45:09;98804.94;;;2.27;92.75
50302;BME280;36550;50.472;19.744;2024-01-27T12:47:53;98807.48;;;2.23;93.05
50302;BME280;36550;50.472;19.744;2024-01-27T12:50:37;98809.67;;;2.15;94.32
50302;BME280;36550;50.472;19.744;2024-01-27T12:53:21;98816.04;;;2.10;95.26
50302;BME280;36550;50.472;19.744;2024-01-27T12:56:05;98813.45;;;2.08;94.51
50302;BME280;36550;50.472;19.744;2024-01-27T12:58:49;98817.98;;;2.11;94.52
50302;BME280;36550;50.472;19.744;2024-01-27T13:01:33;98820.73;;;2.13;94.81
50302;BME280;36550;50.472;19.744;2024-01-27T13:04:18;98824.14;;;2.19;94.63
50302;BME280;36550;50.472;19.744;2024-01-27T13:07:02;98820.14;;;2.22;94.52
50302;BME280;36550;50.472;19.744;2024-01-27T13:09:47;98827.36;;;2.26;94.65
50302;BME280;36550;50.472;19.744;2024-01-27T13:12:32;98831.77;;;2.22;94.80
50302;BME280;36550;50.472;19.744;2024-01-27T13:15:16;98840.65;;;2.22;94.77
50302;BME280;36550;50.472;19.744;2024-01-27T13:18:00;98843.38;;;2.17;94.91
50302;BME280;36550;50.472;19.744;2024-01-27T13:20:45;98847.34;;;2.10;94.95
50302;BME280;36550;50.472;19.744;2024-01-27T13:23:28;98854.02;;;2.02;95.44
50302;BME280;36550;50.472;19.744;2024-01-27T13:26:13;98857.67;;;2.02;95.68
50302;BME280;36550;50.472;19.744;2024-01-27T13:28:57;98861.52;;;2.01;95.66
50302;BME280;36550;50.472;19.744;2024-01-27T13:31:41;98865.73;;;1.97;96.00
50302;BME280;36550;50.472;19.744;2024-01-27T13:34:26;98870.06;;;1.97;95.68
50302;BME280;36550;50.472;19.744;2024-01-27T13:37:15;98874.85;;;1.97;95.80
50302;BME280;36550;50.472;19.744;2024-01-27T13:40:00;98878.93;;;2.01;95.87
50302;BME280;36550;50.472;19.744;2024-01-27T13:42:44;98881.47;;;2.04;95.74
50302;BME280;36550;50.472;19.744;2024-01-27T13:45:29;98885.84;;;2.06;95.65
50302;BME280;36550;50.472;19.744;2024-01-27T13:48:14;98887.82;;;2.04;95.69
50302;BME280;36550;50.472;19.744;2024-01-27T13:50:59;98887.20;;;2.05;95.57
50302;BME280;36550;50.472;19.744;2024-01-27T13:53:44;98890.77;;;1.99;96.36
50302;BME280;36550;50.472;19.744;2024-01-27T13:56:27;98897.70;;;1.98;96.63
50302;BME280;36550;50.472;19.744;2024-01-27T13:59:16;98902.10;;;1.96;96.79
50302;BME280;36550;50.472;19.744;2024-01-27T14:02:00;98907.63;;;1.94;97.09
50302;BME280;36550;50.472;19.744;2024-01-27T14:04:45;98913.77;;;1.97;97.24
50302;BME280;36550;50.472;19.744;2024-01-27T14:07:31;98916.33;;;1.93;97.53
50302;BME280;36550;50.472;19.744;2024-01-27T14:10:17;98919.98;;;1.96;97.58
50302;BME280;36550;50.472;19.744;2024-01-27T14:13:02;98920.96;;;1.99;97.49
50302;BME280;36550;50.472;19.744;2024-01-27T14:15:52;98926.61;;;2.01;97.21
50302;BME280;36550;50.472;19.744;2024-01-27T14:18:36;98937.27;;;1.98;97.53
50302;BME280;36550;50.472;19.744;2024-01-27T14:21:20;98946.70;;;1.97;97.97
50302;BME280;36550;50.472;19.744;2024-01-27T14:24:06;98953.17;;;1.94;98.03
50302;BME280;36550;50.472;19.744;2024-01-27T14:26:51;98956.21;;;1.91;98.16
50302;BME280;36550;50.472;19.744;2024-01-27T14:29:35;98962.98;;;1.89;98.30
50302;BME280;36550;50.472;19.744;2024-01-27T14:32:20;98967.02;;;1.85;98.54
50302;BME280;36550;50.472;19.744;2024-01-27T14:35:05;98971.16;;;1.87;98.39
50302;BME280;36550;50.472;19.744;2024-01-27T14:38:08;98972.72;;;1.87;98.17
50302;BME280;36550;50.472;19.744;2024-01-27T14:40:56;98984.71;;;1.79;98.86
50302;BME280;36550;50.472;19.744;2024-01-27T14:43:40;98986.73;;;1.76;98.89
50302;BME280;36550;50.472;19.744;2024-01-27T14:46:24;98995.42;;;1.79;98.59
50302;BME280;36550;50.472;19.744;2024-01-27T14:49:08;98997.23;;;1.78;98.80
50302;BME280;36550;50.472;19.744;2024-01-27T14:51:53;99001.27;;;1.74;99.05
50302;BME280;36550;50.472;19.744;2024-01-27T14:54:57;98997.40;;;1.75;99.32
50302;BME280;36550;50.472;19.744;2024-01-27T14:58:03;98999.91;;;1.77;99.55
50302;BME280;36550;50.472;19.744;2024-01-27T15:00:51;99002.20;;;1.77;99.90
50302;BME280;36550;50.472;19.744;2024-01-27T15:03:58;99008.85;;;1.79;99.60
50302;BME280;36550;50.472;19.744;2024-01-27T15:06:46;99011.90;;;1.83;99.90
50302;BME280;36550;50.472;19.744;2024-01-27T15:09:50;99017.11;;;1.83;100.00
50302;BME280;36550;50.472;19.744;2024-01-27T15:13:11;99024.43;;;1.84;100.00
50302;BME280;36550;50.472;19.744;2024-01-27T15:15:55;99028.89;;;1.88;100.00
50302;BME280;36550;50.472;19.744;2024-01-27T15:18:40;99031.61;;;1.88;100.00
50302;BME280;36550;50.472;19.744;2024-01-27T15:21:28;99037.22;;;1.90;100.00
50302;BME280;36550;50.472;19.744;2024-01-27T15:24:15;99037.61;;;1.86;100.00
50302;BME280;36550;50.472;19.744;2024-01-27T15:26:59;99043.19;;;1.86;100.00